sensor_id;sensor_type;location;lat;lon;timestamp;P1;durP1;ratioP1;P2;durP2;ratioP2
20344;SDS011;10330;48.816;9.278;2022-09-02T00:01:12;4.60;;;3.40;;
20344;SDS011;10330;48.816;9.278;2022-09-02T00:03:40;3.80;;;3.50;;
20344;SDS011;10330;48.816;9.278;2022-09-02T00:06:06;5.82;;;3.53;;
20344;SDS011;10330;48.816;9.278;2022-09-02T00:08:33;7.55;;;3.22;;
20344;SDS011;10330;48.816;9.278;2022-09-02T00:11:00;6.60;;;3.03;;
20344;SDS011;10330;48.816;9.278;2022-09-02T00:13:30;5.75;;;3.58;;
20344;SDS011;10330;48.816;9.278;2022-09-02T00:15:58;3.45;;;3.10;;
20344;SDS011;10330;48.816;9.278;2022-09-02T00:18:24;6.47;;;3.83;;
20344;SDS011;10330;48.816;9.278;2022-09-02T00:20:51;5.90;;;3.72;;
20344;SDS011;10330;48.816;9.278;2022-09-02T00:23:18;3.65;;;3.38;;
20344;SDS011;10330;48.816;9.278;2022-09-02T00:25:44;5.60;;;3.35;;
20344;SDS011;10330;48.816;9.278;2022-09-02T00:28:12;4.30;;;3.70;;
20344;SDS011;10330;48.816;9.278;2022-09-02T00:30:40;7.13;;;3.85;;
20344;SDS011;10330;48.816;9.278;2022-09-02T00:33:07;3.50;;;3.20;;
20344;SDS011;10330;48.816;9.278;2022-09-02T00:35:34;3.92;;;3.53;;
20344;SDS011;10330;48.816;9.278;2022-09-02T00:38:01;2.95;;;2.72;;
20344;SDS011;10330;48.816;9.278;2022-09-02T00:40:29;8.18;;;2.95;;
20344;SDS011;10330;48.816;9.278;2022-09-02T00:42:56;2.97;;;2.78;;
20344;SDS011;10330;48.816;9.278;2022-09-02T00:45:23;3.97;;;3.17;;
20344;SDS011;10330;48.816;9.278;2022-09-02T00:47:49;3.20;;;3.00;;
20344;SDS011;10330;48.816;9.278;2022-09-02T00:50:17;3.47;;;2.72;;
20344;SDS011;10330;48.816;9.278;2022-09-02T00:52:54;3.80;;;2.97;;
20344;SDS011;10330;48.816;9.278;2022-09-02T00:55:26;7.38;;;3.08;;
20344;SDS011;10330;48.816;9.278;2022-09-02T00:57:59;3.38;;;3.05;;
20344;SDS011;10330;48.816;9.278;2022-09-02T01:00:30;2.60;;;2.40;;
20344;SDS011;10330;48.816;9.278;2022-09-02T01:03:02;4.43;;;3.13;;
20344;SDS011;10330;48.816;9.278;2022-09-02T01:05:32;4.38;;;3.33;;
20344;SDS011;10330;48.816;9.278;2022-09-02T01:08:00;2.95;;;2.67;;
20344;SDS011;10330;48.816;9.278;2022-09-02T01:10:29;7.13;;;2.85;;
20344;SDS011;10330;48.816;9.278;2022-09-02T01:16:43;5.70;;;2.75;;
20344;SDS011;10330;48.816;9.278;2022-09-02T01:19:19;3.42;;;3.10;;
20344;SDS011;10330;48.816;9.278;2022-09-02T01:21:52;6.13;;;2.55;;
20344;SDS011;10330;48.816;9.278;2022-09-02T01:24:21;3.30;;;3.00;;
20344;SDS011;10330;48.816;9.278;2022-09-02T01:26:51;3.70;;;3.00;;
20344;SDS011;10330;48.816;9.278;2022-09-02T01:29:20;2.97;;;2.78;;
20344;SDS011;10330;48.816;9.278;2022-09-02T01:31:47;7.85;;;3.20;;
20344;SDS011;10330;48.816;9.278;2022-09-02T01:34:14;3.80;;;3.05;;
20344;SDS011;10330;48.816;9.278;2022-09-02T01:36:54;4.38;;;3.13;;
20344;SDS011;10330;48.816;9.278;2022-09-02T01:39:21;2.95;;;2.75;;
20344;SDS011;10330;48.816;9.278;2022-09-02T01:41:47;7.50;;;3.95;;
20344;SDS011;10330;48.816;9.278;2022-09-02T01:44:14;4.40;;;3.22;;
20344;SDS011;10330;48.816;9.278;2022-09-02T01:46:43;3.67;;;3.38;;
20344;SDS011;10330;48.816;9.278;2022-09-02T01:49:10;3.30;;;2.70;;
20344;SDS011;10330;48.816;9.278;2022-09-02T01:51:37;2.80;;;2.70;;
20344;SDS011;10330;48.816;9.278;2022-09-02T01:54:03;3.65;;;2.65;;
20344;SDS011;10330;48.816;9.278;2022-09-02T01:56:30;3.95;;;2.90;;
20344;SDS011;10330;48.816;9.278;2022-09-02T01:58:58;3.33;;;2.67;;
20344;SDS011;10330;48.816;9.278;2022-09-02T02:01:24;2.97;;;2.78;;
20344;SDS011;10330;48.816;9.278;2022-09-02T02:03:51;10.93;;;2.70;;
20344;SDS011;10330;48.816;9.278;2022-09-02T02:06:18;2.58;;;2.40;;
20344;SDS011;10330;48.816;9.278;2022-09-02T02:08:46;3.95;;;3.05;;
20344;SDS011;10330;48.816;9.278;2022-09-02T02:11:19;8.60;;;2.97;;
20344;SDS011;10330;48.816;9.278;2022-09-02T02:13:51;3.47;;;2.88;;
20344;SDS011;10330;48.816;9.278;2022-09-02T02:16:20;9.48;;;3.53;;
20344;SDS011;10330;48.816;9.278;2022-09-02T02:18:46;2.65;;;2.45;;
20344;SDS011;10330;48.816;9.278;2022-09-02T02:21:12;6.18;;;2.97;;
20344;SDS011;10330;48.816;9.278;2022-09-02T02:23:39;3.47;;;3.25;;
20344;SDS011;10330;48.816;9.278;2022-09-02T02:26:05;4.78;;;2.80;;
20344;SDS011;10330;48.816;9.278;2022-09-02T02:28:33;4.95;;;2.83;;
20344;SDS011;10330;48.816;9.278;2022-09-02T02:31:03;4.80;;;3.03;;
20344;SDS011;10330;48.816;9.278;2022-09-02T02:33:30;4.53;;;3.35;;
20344;SDS011;10330;48.816;9.278;2022-09-02T02:35:57;3.40;;;3.10;;
20344;SDS011;10330;48.816;9.278;2022-09-02T02:38:23;5.00;;;3.75;;
20344;SDS011;10330;48.816;9.278;2022-09-02T02:40:53;7.50;;;2.97;;
20344;SDS011;10330;48.816;9.278;2022-09-02T02:43:23;3.22;;;2.92;;
20344;SDS011;10330;48.816;9.278;2022-09-02T02:45:51;4.43;;;2.97;;
20344;SDS011;10330;48.816;9.278;2022-09-02T02:48:19;3.25;;;3.05;;
20344;SDS011;10330;48.816;9.278;2022-09-02T02:50:46;4.32;;;4.03;;
20344;SDS011;10330;48.816;9.278;2022-09-02T02:53:12;3.33;;;3.05;;
20344;SDS011;10330;48.816;9.278;2022-09-02T02:55:39;2.90;;;2.67;;
20344;SDS011;10330;48.816;9.278;2022-09-02T02:58:05;2.88;;;2.67;;
20344;SDS011;10330;48.816;9.278;2022-09-02T03:00:32;3.40;;;3.10;;
20344;SDS011;10330;48.816;9.278;2022-09-02T03:03:00;2.88;;;2.60;;
20344;SDS011;10330;48.816;9.278;2022-09-02T03:05:29;3.10;;;2.90;;
20344;SDS011;10330;48.816;9.278;2022-09-02T03:07:57;3.13;;;2.83;;
20344;SDS011;10330;48.816;9.278;2022-09-02T03:10:24;5.07;;;2.90;;
20344;SDS011;10330;48.816;9.278;2022-09-02T03:12:52;3.28;;;3.08;;
20344;SDS011;10330;48.816;9.278;2022-09-02T03:15:20;3.83;;;2.92;;
20344;SDS011;10330;48.816;9.278;2022-09-02T03:17:49;3.03;;;2.83;;
20344;SDS011;10330;48.816;9.278;2022-09-02T03:20:18;3.53;;;3.22;;
20344;SDS011;10330;48.816;9.278;2022-09-02T03:22:49;3.60;;;2.88;;
20344;SDS011;10330;48.816;9.278;2022-09-02T03:25:17;4.55;;;2.90;;
20344;SDS011;10330;48.816;9.278;2022-09-02T03:27:46;3.70;;;2.45;;
20344;SDS011;10330;48.816;9.278;2022-09-02T03:30:16;2.08;;;1.98;;
20344;SDS011;10330;48.816;9.278;2022-09-02T03:32:44;3.08;;;2.88;;
20344;SDS011;10330;48.816;9.278;2022-09-02T03:35:13;3.35;;;3.05;;
20344;SDS011;10330;48.816;9.278;2022-09-02T03:37:40;8.50;;;2.78;;
20344;SDS011;10330;48.816;9.278;2022-09-02T03:40:08;2.85;;;2.70;;
20344;SDS011;10330;48.816;9.278;2022-09-02T03:42:37;3.95;;;3.25;;
20344;SDS011;10330;48.816;9.278;2022-09-02T03:45:05;3.40;;;2.85;;
20344;SDS011;10330;48.816;9.278;2022-09-02T03:47:33;3.65;;;3.35;;
20344;SDS011;10330;48.816;9.278;2022-09-02T03:50:01;5.13;;;2.67;;
20344;SDS011;10330;48.816;9.278;2022-09-02T03:52:29;3.40;;;3.03;;
20344;SDS011;10330;48.816;9.278;2022-09-02T03:54:57;3.50;;;3.08;;
20344;SDS011;10330;48.816;9.278;2022-09-02T03:57:24;3.45;;;3.13;;
20344;SDS011;10330;48.816;9.278;2022-09-02T03:59:52;3.20;;;3.00;;
20344;SDS011;10330;48.816;9.278;2022-09-02T04:02:19;7.57;;;2.83;;
20344;SDS011;10330;48.816;9.278;2022-09-02T04:04:45;3.80;;;2.92;;
20344;SDS011;10330;48.816;9.278;2022-09-02T04:07:11;3.47;;;3.17;;
20344;SDS011;10330;48.816;9.278;2022-09-02T04:09:38;5.50;;;3.40;;
20344;SDS011;10330;48.816;9.278;2022-09-02T04:12:05;4.10;;;2.80;;
20344;SDS011;10330;48.816;9.278;2022-09-02T04:14:32;3.55;;;2.33;;
20344;SDS011;10330;48.816;9.278;2022-09-02T04:16:58;3.58;;;2.97;;
20344;SDS011;10330;48.816;9.278;2022-09-02T04:19:25;3.28;;;2.67;;
20344;SDS011;10330;48.816;9.278;2022-09-02T04:21:51;10.20;;;2.67;;
20344;SDS011;10330;48.816;9.278;2022-09-02T04:24:18;3.83;;;2.88;;
20344;SDS011;10330;48.816;9.278;2022-09-02T04:26:48;7.90;;;3.20;;
20344;SDS011;10330;48.816;9.278;2022-09-02T04:29:16;3.35;;;3.05;;
20344;SDS011;10330;48.816;9.278;2022-09-02T04:31:43;8.88;;;3.20;;
20344;SDS011;10330;48.816;9.278;2022-09-02T04:34:10;3.20;;;2.80;;
20344;SDS011;10330;48.816;9.278;2022-09-02T04:36:36;4.38;;;3.55;;
20344;SDS011;10330;48.816;9.278;2022-09-02T04:39:06;4.35;;;3.50;;
20344;SDS011;10330;48.816;9.278;2022-09-02T04:41:34;9.43;;;2.95;;
20344;SDS011;10330;48.816;9.278;2022-09-02T04:44:04;3.53;;;3.08;;
20344;SDS011;10330;48.816;9.278;2022-09-02T04:46:36;4.75;;;2.85;;
20344;SDS011;10330;48.816;9.278;2022-09-02T04:49:06;2.88;;;2.67;;
20344;SDS011;10330;48.816;9.278;2022-09-02T04:51:34;3.63;;;2.63;;
20344;SDS011;10330;48.816;9.278;2022-09-02T04:54:03;3.38;;;3.17;;
20344;SDS011;10330;48.816;9.278;2022-09-02T04:56:29;5.57;;;2.80;;
20344;SDS011;10330;48.816;9.278;2022-09-02T04:58:59;3.47;;;3.17;;
20344;SDS011;10330;48.816;9.278;2022-09-02T05:01:27;2.88;;;2.67;;
20344;SDS011;10330;48.816;9.278;2022-09-02T05:03:58;4.18;;;3.35;;
20344;SDS011;10330;48.816;9.278;2022-09-02T05:06:32;3.67;;;3.05;;
20344;SDS011;10330;48.816;9.278;2022-09-02T05:09:01;3.30;;;3.00;;
20344;SDS011;10330;48.816;9.278;2022-09-02T05:11:31;10.35;;;3.88;;
20344;SDS011;10330;48.816;9.278;2022-09-02T05:14:01;3.95;;;3.55;;
20344;SDS011;10330;48.816;9.278;2022-09-02T05:16:32;5.43;;;3.22;;
20344;SDS011;10330;48.816;9.278;2022-09-02T05:19:07;3.85;;;3.15;;
20344;SDS011;10330;48.816;9.278;2022-09-02T05:21:54;4.80;;;2.90;;
20344;SDS011;10330;48.816;9.278;2022-09-02T05:24:41;4.70;;;3.08;;
20344;SDS011;10330;48.816;9.278;2022-09-02T05:27:13;3.35;;;3.05;;
20344;SDS011;10330;48.816;9.278;2022-09-02T05:29:43;4.18;;;3.15;;
20344;SDS011;10330;48.816;9.278;2022-09-02T05:32:10;3.10;;;2.80;;
20344;SDS011;10330;48.816;9.278;2022-09-02T05:34:38;3.50;;;2.85;;
20344;SDS011;10330;48.816;9.278;2022-09-02T05:37:05;5.55;;;2.95;;
20344;SDS011;10330;48.816;9.278;2022-09-02T05:39:33;3.78;;;2.47;;
20344;SDS011;10330;48.816;9.278;2022-09-02T05:42:00;3.35;;;2.83;;
20344;SDS011;10330;48.816;9.278;2022-09-02T05:44:27;5.05;;;3.35;;
20344;SDS011;10330;48.816;9.278;2022-09-02T05:46:56;3.33;;;2.80;;
20344;SDS011;10330;48.816;9.278;2022-09-02T05:49:23;6.00;;;3.35;;
20344;SDS011;10330;48.816;9.278;2022-09-02T05:51:57;5.78;;;3.15;;
20344;SDS011;10330;48.816;9.278;2022-09-02T05:54:37;6.50;;;3.30;;
20344;SDS011;10330;48.816;9.278;2022-09-02T05:57:12;3.95;;;2.85;;
20344;SDS011;10330;48.816;9.278;2022-09-02T05:59:54;4.35;;;2.33;;
20344;SDS011;10330;48.816;9.278;2022-09-02T06:02:24;2.88;;;2.67;;
20344;SDS011;10330;48.816;9.278;2022-09-02T06:04:51;3.25;;;2.30;;
20344;SDS011;10330;48.816;9.278;2022-09-02T06:07:20;3.20;;;2.67;;
20344;SDS011;10330;48.816;9.278;2022-09-02T06:09:50;3.08;;;2.63;;
20344;SDS011;10330;48.816;9.278;2022-09-02T06:12:18;2.90;;;2.20;;
20344;SDS011;10330;48.816;9.278;2022-09-02T06:14:46;5.65;;;2.83;;
20344;SDS011;10330;48.816;9.278;2022-09-02T06:20:17;5.55;;;2.92;;
20344;SDS011;10330;48.816;9.278;2022-09-02T06:22:44;3.25;;;2.53;;
20344;SDS011;10330;48.816;9.278;2022-09-02T06:25:14;5.80;;;2.15;;
20344;SDS011;10330;48.816;9.278;2022-09-02T06:27:54;4.18;;;2.40;;
20344;SDS011;10330;48.816;9.278;2022-09-02T06:30:20;2.67;;;2.42;;
20344;SDS011;10330;48.816;9.278;2022-09-02T06:32:46;2.40;;;2.20;;
20344;SDS011;10330;48.816;9.278;2022-09-02T06:35:14;4.15;;;2.50;;
20344;SDS011;10330;48.816;9.278;2022-09-02T06:37:41;2.47;;;2.35;;
20344;SDS011;10330;48.816;9.278;2022-09-02T06:40:09;3.92;;;2.30;;
20344;SDS011;10330;48.816;9.278;2022-09-02T06:42:36;6.85;;;1.98;;
20344;SDS011;10330;48.816;9.278;2022-09-02T06:45:15;2.45;;;2.25;;
20344;SDS011;10330;48.816;9.278;2022-09-02T06:47:50;2.78;;;2.13;;
20344;SDS011;10330;48.816;9.278;2022-09-02T06:50:21;3.13;;;2.30;;
20344;SDS011;10330;48.816;9.278;2022-09-02T06:52:51;2.22;;;2.13;;
20344;SDS011;10330;48.816;9.278;2022-09-02T06:55:18;6.70;;;4.75;;
20344;SDS011;10330;48.816;9.278;2022-09-02T06:57:45;4.30;;;2.28;;
20344;SDS011;10330;48.816;9.278;2022-09-02T07:00:28;5.47;;;2.40;;
20344;SDS011;10330;48.816;9.278;2022-09-02T07:02:59;3.50;;;2.60;;
20344;SDS011;10330;48.816;9.278;2022-09-02T07:05:56;9.98;;;2.40;;
20344;SDS011;10330;48.816;9.278;2022-09-02T07:11:48;9.10;;;2.55;;
20344;SDS011;10330;48.816;9.278;2022-09-02T07:21:37;3.80;;;1.80;;
20344;SDS011;10330;48.816;9.278;2022-09-02T07:24:13;2.60;;;2.17;;
20344;SDS011;10330;48.816;9.278;2022-09-02T07:27:09;3.00;;;1.95;;
20344;SDS011;10330;48.816;9.278;2022-09-02T07:46:24;2.28;;;1.75;;
20344;SDS011;10330;48.816;9.278;2022-09-02T07:49:04;4.78;;;1.65;;
20344;SDS011;10330;48.816;9.278;2022-09-02T07:51:58;5.97;;;1.98;;
20344;SDS011;10330;48.816;9.278;2022-09-02T07:54:25;1.67;;;1.58;;
20344;SDS011;10330;48.816;9.278;2022-09-02T07:56:57;7.40;;;2.47;;
20344;SDS011;10330;48.816;9.278;2022-09-02T07:59:43;3.33;;;1.92;;
20344;SDS011;10330;48.816;9.278;2022-09-02T08:02:52;3.85;;;1.88;;
20344;SDS011;10330;48.816;9.278;2022-09-02T08:23:41;4.07;;;2.45;;
20344;SDS011;10330;48.816;9.278;2022-09-02T08:27:00;4.43;;;1.75;;
20344;SDS011;10330;48.816;9.278;2022-09-02T08:33:30;1.60;;;1.50;;
20344;SDS011;10330;48.816;9.278;2022-09-02T08:40:45;2.08;;;1.60;;
20344;SDS011;10330;48.816;9.278;2022-09-02T08:46:31;7.30;;;1.77;;
20344;SDS011;10330;48.816;9.278;2022-09-02T08:50:02;7.47;;;1.58;;
20344;SDS011;10330;48.816;9.278;2022-09-02T08:52:32;1.33;;;1.02;;
20344;SDS011;10330;48.816;9.278;2022-09-02T08:58:54;1.30;;;1.20;;
20344;SDS011;10330;48.816;9.278;2022-09-02T09:44:03;1.95;;;1.30;;
20344;SDS011;10330;48.816;9.278;2022-09-02T09:46:32;2.85;;;1.30;;
20344;SDS011;10330;48.816;9.278;2022-09-02T09:48:59;1.52;;;1.38;;
20344;SDS011;10330;48.816;9.278;2022-09-02T09:51:25;1.77;;;0.95;;
20344;SDS011;10330;48.816;9.278;2022-09-02T09:53:51;1.38;;;1.10;;
20344;SDS011;10330;48.816;9.278;2022-09-02T09:56:39;2.92;;;1.10;;
20344;SDS011;10330;48.816;9.278;2022-09-02T09:59:06;3.50;;;1.00;;
20344;SDS011;10330;48.816;9.278;2022-09-02T10:04:51;5.10;;;1.23;;
20344;SDS011;10330;48.816;9.278;2022-09-02T10:07:33;5.22;;;1.08;;
20344;SDS011;10330;48.816;9.278;2022-09-02T10:10:34;1.00;;;1.00;;
20344;SDS011;10330;48.816;9.278;2022-09-02T10:15:57;0.90;;;0.90;;
20344;SDS011;10330;48.816;9.278;2022-09-02T10:18:39;2.03;;;1.40;;
20344;SDS011;10330;48.816;9.278;2022-09-02T10:21:20;4.32;;;1.00;;
20344;SDS011;10330;48.816;9.278;2022-09-02T10:27:00;1.95;;;1.10;;
20344;SDS011;10330;48.816;9.278;2022-09-02T10:29:37;2.05;;;0.95;;
20344;SDS011;10330;48.816;9.278;2022-09-02T10:35:20;5.38;;;1.30;;
20344;SDS011;10330;48.816;9.278;2022-09-02T10:37:59;0.70;;;0.70;;
20344;SDS011;10330;48.816;9.278;2022-09-02T10:40:50;1.50;;;1.33;;
20344;SDS011;10330;48.816;9.278;2022-09-02T10:43:32;0.80;;;0.80;;
20344;SDS011;10330;48.816;9.278;2022-09-02T10:46:20;8.48;;;1.02;;
20344;SDS011;10330;48.816;9.278;2022-09-02T10:49:03;0.90;;;0.90;;
20344;SDS011;10330;48.816;9.278;2022-09-02T11:01:23;2.70;;;0.80;;
20344;SDS011;10330;48.816;9.278;2022-09-02T11:06:52;5.75;;;1.17;;
20344;SDS011;10330;48.816;9.278;2022-09-02T11:09:37;5.78;;;1.08;;
20344;SDS011;10330;48.816;9.278;2022-09-02T11:12:39;0.73;;;0.73;;
20344;SDS011;10330;48.816;9.278;2022-09-02T11:15:17;1.70;;;1.35;;
20344;SDS011;10330;48.816;9.278;2022-09-02T11:18:24;0.90;;;0.90;;
20344;SDS011;10330;48.816;9.278;2022-09-02T11:21:02;1.08;;;1.08;;
20344;SDS011;10330;48.816;9.278;2022-09-02T11:32:38;1.65;;;0.93;;
20344;SDS011;10330;48.816;9.278;2022-09-02T11:35:12;2.33;;;0.90;;
20344;SDS011;10330;48.816;9.278;2022-09-02T11:37:47;1.25;;;0.73;;
20344;SDS011;10330;48.816;9.278;2022-09-02T11:40:34;0.95;;;0.95;;
20344;SDS011;10330;48.816;9.278;2022-09-02T11:43:31;0.95;;;0.75;;
20344;SDS011;10330;48.816;9.278;2022-09-02T11:49:08;1.95;;;1.20;;
20344;SDS011;10330;48.816;9.278;2022-09-02T11:51:56;0.98;;;0.88;;
20344;SDS011;10330;48.816;9.278;2022-09-02T11:55:08;1.30;;;1.20;;
20344;SDS011;10330;48.816;9.278;2022-09-02T11:57:41;3.40;;;1.23;;
20344;SDS011;10330;48.816;9.278;2022-09-02T12:00:12;1.10;;;1.00;;
20344;SDS011;10330;48.816;9.278;2022-09-02T12:13:35;2.25;;;1.10;;
20344;SDS011;10330;48.816;9.278;2022-09-02T12:21:23;0.52;;;0.52;;
20344;SDS011;10330;48.816;9.278;2022-09-02T12:27:25;2.17;;;1.15;;
20344;SDS011;10330;48.816;9.278;2022-09-02T12:29:51;4.05;;;0.73;;
20344;SDS011;10330;48.816;9.278;2022-09-02T12:35:12;3.08;;;1.48;;
20344;SDS011;10330;48.816;9.278;2022-09-02T12:40:46;1.85;;;1.15;;
20344;SDS011;10330;48.816;9.278;2022-09-02T12:43:26;3.22;;;0.93;;
20344;SDS011;10330;48.816;9.278;2022-09-02T12:46:00;0.80;;;0.80;;
20344;SDS011;10330;48.816;9.278;2022-09-02T12:48:44;3.60;;;0.98;;
20344;SDS011;10330;48.816;9.278;2022-09-02T12:54:34;5.43;;;0.80;;
20344;SDS011;10330;48.816;9.278;2022-09-02T12:57:05;2.03;;;1.17;;
20344;SDS011;10330;48.816;9.278;2022-09-02T13:05:54;8.20;;;1.08;;
20344;SDS011;10330;48.816;9.278;2022-09-02T13:17:14;1.52;;;1.25;;
20344;SDS011;10330;48.816;9.278;2022-09-02T13:25:54;0.70;;;0.70;;
20344;SDS011;10330;48.816;9.278;2022-09-02T13:31:19;1.95;;;1.13;;
20344;SDS011;10330;48.816;9.278;2022-09-02T13:36:47;0.80;;;0.80;;
20344;SDS011;10330;48.816;9.278;2022-09-02T13:41:48;1.50;;;0.80;;
20344;SDS011;10330;48.816;9.278;2022-09-02T13:44:24;1.85;;;0.80;;
20344;SDS011;10330;48.816;9.278;2022-09-02T13:47:02;1.58;;;0.90;;
20344;SDS011;10330;48.816;9.278;2022-09-02T13:49:39;5.07;;;0.77;;
20344;SDS011;10330;48.816;9.278;2022-09-02T13:52:10;1.02;;;0.73;;
20344;SDS011;10330;48.816;9.278;2022-09-02T13:54:42;0.80;;;0.80;;
20344;SDS011;10330;48.816;9.278;2022-09-02T13:57:12;0.93;;;0.80;;
20344;SDS011;10330;48.816;9.278;2022-09-02T13:59:46;6.28;;;1.15;;
20344;SDS011;10330;48.816;9.278;2022-09-02T14:02:31;9.20;;;6.70;;
20344;SDS011;10330;48.816;9.278;2022-09-02T14:05:06;2.67;;;2.20;;
20344;SDS011;10330;48.816;9.278;2022-09-02T14:07:42;6.78;;;1.30;;
20344;SDS011;10330;48.816;9.278;2022-09-02T14:10:12;4.22;;;3.30;;
20344;SDS011;10330;48.816;9.278;2022-09-02T14:12:41;6.47;;;1.25;;
20344;SDS011;10330;48.816;9.278;2022-09-02T14:15:10;3.42;;;0.85;;
20344;SDS011;10330;48.816;9.278;2022-09-02T14:17:38;4.13;;;1.20;;
20344;SDS011;10330;48.816;9.278;2022-09-02T14:20:20;4.05;;;3.40;;
20344;SDS011;10330;48.816;9.278;2022-09-02T14:22:51;3.42;;;2.95;;
20344;SDS011;10330;48.816;9.278;2022-09-02T14:25:22;6.07;;;1.63;;
20344;SDS011;10330;48.816;9.278;2022-09-02T14:27:50;5.63;;;1.40;;
20344;SDS011;10330;48.816;9.278;2022-09-02T14:30:35;1.75;;;1.35;;
20344;SDS011;10330;48.816;9.278;2022-09-02T14:35:54;4.30;;;1.15;;
20344;SDS011;10330;48.816;9.278;2022-09-02T14:39:08;2.92;;;0.75;;
20344;SDS011;10330;48.816;9.278;2022-09-02T14:41:32;1.35;;;0.90;;
20344;SDS011;10330;48.816;9.278;2022-09-02T14:46:57;2.67;;;0.80;;
20344;SDS011;10330;48.816;9.278;2022-09-02T14:49:35;1.00;;;1.00;;
20344;SDS011;10330;48.816;9.278;2022-09-02T14:52:47;2.75;;;0.85;;
20344;SDS011;10330;48.816;9.278;2022-09-02T14:55:56;5.25;;;1.02;;
20344;SDS011;10330;48.816;9.278;2022-09-02T14:58:21;5.88;;;1.00;;
20344;SDS011;10330;48.816;9.278;2022-09-02T15:00:49;2.17;;;1.05;;
20344;SDS011;10330;48.816;9.278;2022-09-02T15:03:20;6.25;;;1.30;;
20344;SDS011;10330;48.816;9.278;2022-09-02T15:05:48;7.15;;;1.40;;
20344;SDS011;10330;48.816;9.278;2022-09-02T15:08:14;4.13;;;1.00;;
20344;SDS011;10330;48.816;9.278;2022-09-02T15:10:41;2.40;;;0.88;;
20344;SDS011;10330;48.816;9.278;2022-09-02T15:13:14;1.65;;;1.55;;
20344;SDS011;10330;48.816;9.278;2022-09-02T15:15:50;4.18;;;0.50;;
20344;SDS011;10330;48.816;9.278;2022-09-02T15:18:17;2.40;;;0.90;;
20344;SDS011;10330;48.816;9.278;2022-09-02T15:20:43;1.05;;;0.90;;
20344;SDS011;10330;48.816;9.278;2022-09-02T15:23:09;3.60;;;1.35;;
20344;SDS011;10330;48.816;9.278;2022-09-02T15:25:36;1.13;;;1.05;;
20344;SDS011;10330;48.816;9.278;2022-09-02T15:28:02;1.13;;;1.02;;
20344;SDS011;10330;48.816;9.278;2022-09-02T15:30:28;1.92;;;1.13;;
20344;SDS011;10330;48.816;9.278;2022-09-02T15:32:55;2.53;;;0.90;;
20344;SDS011;10330;48.816;9.278;2022-09-02T15:35:21;4.15;;;1.25;;
20344;SDS011;10330;48.816;9.278;2022-09-02T15:37:48;3.88;;;1.20;;
20344;SDS011;10330;48.816;9.278;2022-09-02T15:40:14;1.17;;;1.08;;
20344;SDS011;10330;48.816;9.278;2022-09-02T15:42:41;3.88;;;0.85;;
20344;SDS011;10330;48.816;9.278;2022-09-02T15:45:10;3.53;;;1.05;;
20344;SDS011;10330;48.816;9.278;2022-09-02T15:47:36;3.50;;;0.90;;
20344;SDS011;10330;48.816;9.278;2022-09-02T15:50:04;0.88;;;0.75;;
20344;SDS011;10330;48.816;9.278;2022-09-02T15:52:31;0.70;;;0.70;;
20344;SDS011;10330;48.816;9.278;2022-09-02T15:54:59;4.68;;;1.10;;
20344;SDS011;10330;48.816;9.278;2022-09-02T15:57:25;0.60;;;0.60;;
20344;SDS011;10330;48.816;9.278;2022-09-02T15:59:51;2.03;;;1.10;;
20344;SDS011;10330;48.816;9.278;2022-09-02T16:02:17;2.35;;;0.98;;
20344;SDS011;10330;48.816;9.278;2022-09-02T16:04:44;3.40;;;1.42;;
20344;SDS011;10330;48.816;9.278;2022-09-02T16:07:10;1.00;;;1.00;;
20344;SDS011;10330;48.816;9.278;2022-09-02T16:09:36;3.35;;;0.98;;
20344;SDS011;10330;48.816;9.278;2022-09-02T16:12:02;3.97;;;1.30;;
20344;SDS011;10330;48.816;9.278;2022-09-02T16:14:30;1.08;;;1.08;;
20344;SDS011;10330;48.816;9.278;2022-09-02T16:16:58;0.93;;;0.93;;
20344;SDS011;10330;48.816;9.278;2022-09-02T16:19:25;1.67;;;1.15;;
20344;SDS011;10330;48.816;9.278;2022-09-02T16:21:53;2.47;;;1.10;;
20344;SDS011;10330;48.816;9.278;2022-09-02T16:24:19;3.90;;;1.25;;
20344;SDS011;10330;48.816;9.278;2022-09-02T16:26:47;2.88;;;1.38;;
20344;SDS011;10330;48.816;9.278;2022-09-02T16:29:15;1.30;;;0.95;;
20344;SDS011;10330;48.816;9.278;2022-09-02T16:31:44;1.05;;;1.00;;
20344;SDS011;10330;48.816;9.278;2022-09-02T16:34:12;3.50;;;1.10;;
20344;SDS011;10330;48.816;9.278;2022-09-02T16:36:41;4.35;;;1.20;;
20344;SDS011;10330;48.816;9.278;2022-09-02T16:42:17;2.80;;;1.50;;
20344;SDS011;10330;48.816;9.278;2022-09-02T16:44:43;1.63;;;1.15;;
20344;SDS011;10330;48.816;9.278;2022-09-02T16:47:10;1.05;;;1.05;;
20344;SDS011;10330;48.816;9.278;2022-09-02T16:49:36;4.72;;;1.40;;
20344;SDS011;10330;48.816;9.278;2022-09-02T16:52:03;4.63;;;1.30;;
20344;SDS011;10330;48.816;9.278;2022-09-02T16:54:29;1.58;;;1.17;;
20344;SDS011;10330;48.816;9.278;2022-09-02T16:56:55;4.45;;;1.00;;
20344;SDS011;10330;48.816;9.278;2022-09-02T16:59:22;2.50;;;0.90;;
20344;SDS011;10330;48.816;9.278;2022-09-02T17:01:48;1.55;;;1.20;;
20344;SDS011;10330;48.816;9.278;2022-09-02T17:04:14;2.10;;;1.27;;
20344;SDS011;10330;48.816;9.278;2022-09-02T17:06:41;8.02;;;1.35;;
20344;SDS011;10330;48.816;9.278;2022-09-02T17:09:07;1.30;;;1.20;;
20344;SDS011;10330;48.816;9.278;2022-09-02T17:11:34;2.25;;;1.20;;
20344;SDS011;10330;48.816;9.278;2022-09-02T17:14:05;1.80;;;1.38;;
20344;SDS011;10330;48.816;9.278;2022-09-02T17:16:40;1.75;;;1.05;;
20344;SDS011;10330;48.816;9.278;2022-09-02T17:19:08;1.55;;;1.00;;
20344;SDS011;10330;48.816;9.278;2022-09-02T17:21:36;2.25;;;1.33;;
20344;SDS011;10330;48.816;9.278;2022-09-02T17:24:05;1.95;;;1.10;;
20344;SDS011;10330;48.816;9.278;2022-09-02T17:26:33;2.53;;;1.30;;
20344;SDS011;10330;48.816;9.278;2022-09-02T17:29:08;1.92;;;1.45;;
20344;SDS011;10330;48.816;9.278;2022-09-02T17:31:36;7.32;;;1.48;;
20344;SDS011;10330;48.816;9.278;2022-09-02T17:34:05;1.75;;;1.33;;
20344;SDS011;10330;48.816;9.278;2022-09-02T17:36:33;3.60;;;1.20;;
20344;SDS011;10330;48.816;9.278;2022-09-02T17:39:07;2.97;;;1.38;;
20344;SDS011;10330;48.816;9.278;2022-09-02T17:41:35;1.50;;;1.23;;
20344;SDS011;10330;48.816;9.278;2022-09-02T17:44:29;2.00;;;1.20;;
20344;SDS011;10330;48.816;9.278;2022-09-02T17:47:01;1.40;;;1.30;;
20344;SDS011;10330;48.816;9.278;2022-09-02T17:49:32;1.58;;;1.45;;
20344;SDS011;10330;48.816;9.278;2022-09-02T17:52:01;4.10;;;1.33;;
20344;SDS011;10330;48.816;9.278;2022-09-02T17:54:32;6.82;;;1.40;;
20344;SDS011;10330;48.816;9.278;2022-09-02T17:57:08;1.60;;;1.30;;
20344;SDS011;10330;48.816;9.278;2022-09-02T18:00:01;4.20;;;1.67;;
20344;SDS011;10330;48.816;9.278;2022-09-02T18:08:42;18.30;;;8.80;;
20344;SDS011;10330;48.816;9.278;2022-09-02T18:11:13;4.68;;;3.20;;
20344;SDS011;10330;48.816;9.278;2022-09-02T18:18:49;9.23;;;3.75;;
20344;SDS011;10330;48.816;9.278;2022-09-02T18:31:52;3.30;;;1.97;;
20344;SDS011;10330;48.816;9.278;2022-09-02T18:38:02;35.35;;;18.80;;
20344;SDS011;10330;48.816;9.278;2022-09-02T18:47:14;19.63;;;10.43;;
20344;SDS011;10330;48.816;9.278;2022-09-02T18:50:21;25.63;;;12.18;;
20344;SDS011;10330;48.816;9.278;2022-09-02T18:52:58;23.20;;;11.32;;
20344;SDS011;10330;48.816;9.278;2022-09-02T18:55:37;12.00;;;6.20;;
20344;SDS011;10330;48.816;9.278;2022-09-02T18:58:23;3.83;;;2.92;;
20344;SDS011;10330;48.816;9.278;2022-09-02T19:04:41;2.00;;;1.90;;
20344;SDS011;10330;48.816;9.278;2022-09-02T22:12:24;18.27;;;6.93;;
20344;SDS011;10330;48.816;9.278;2022-09-02T22:15:00;14.65;;;7.15;;
20344;SDS011;10330;48.816;9.278;2022-09-02T22:20:56;12.23;;;7.18;;
20344;SDS011;10330;48.816;9.278;2022-09-02T22:23:35;8.43;;;4.07;;
20344;SDS011;10330;48.816;9.278;2022-09-02T22:26:09;9.18;;;4.85;;
20344;SDS011;10330;48.816;9.278;2022-09-02T22:28:45;6.97;;;3.72;;
20344;SDS011;10330;48.816;9.278;2022-09-02T22:31:17;1.70;;;1.50;;
20344;SDS011;10330;48.816;9.278;2022-09-02T22:33:47;4.47;;;1.42;;
20344;SDS011;10330;48.816;9.278;2022-09-02T22:39:28;1.35;;;1.23;;